createdAt,value
2022-09-23T00:01:15.725Z,3.05
2022-09-23T00:03:47.352Z,2.83
2022-09-23T00:06:17.209Z,3.10
2022-09-23T00:08:44.190Z,2.83
2022-09-23T00:11:14.457Z,2.85
2022-09-23T00:13:43.298Z,3.13
2022-09-23T00:16:12.983Z,2.50
2022-09-23T00:18:40.655Z,2.60
2022-09-23T00:21:10.100Z,3.58
2022-09-23T00:23:38.051Z,3.25
2022-09-23T00:26:06.795Z,3.05
2022-09-23T00:28:34.964Z,3.15
2022-09-23T00:31:06.790Z,2.65
2022-09-23T00:33:34.020Z,2.80
2022-09-23T00:36:06.292Z,3.08
2022-09-23T00:38:33.928Z,3.05
2022-09-23T00:41:01.055Z,2.85
2022-09-23T00:43:47.915Z,3.03
2022-09-23T00:46:22.365Z,3.30
2022-09-23T00:48:55.765Z,3.10
2022-09-23T00:51:25.243Z,2.80
2022-09-23T00:53:52.769Z,2.83
2022-09-23T00:56:22.974Z,3.30
2022-09-23T00:58:51.137Z,3.22
2022-09-23T01:01:19.275Z,2.55
2022-09-23T01:03:46.537Z,3.25
2022-09-23T01:06:14.114Z,2.55
2022-09-23T01:08:44.006Z,2.80
2022-09-23T01:11:33.610Z,3.22
2022-09-23T01:14:21.771Z,3.30
2022-09-23T01:16:54.632Z,3.00
2022-09-23T01:19:57.669Z,2.95
2022-09-23T01:22:35.744Z,2.50
2022-09-23T01:25:23.607Z,3.47
2022-09-23T01:28:06.349Z,3.03
2022-09-23T01:31:04.236Z,2.83
2022-09-23T01:33:53.162Z,3.08
2022-09-23T01:36:35.511Z,3.03
2022-09-23T01:39:26.047Z,3.00
2022-09-23T01:42:34.304Z,2.45
2022-09-23T01:45:14.678Z,2.63
2022-09-23T01:47:50.915Z,3.30
2022-09-23T01:50:44.654Z,2.97
2022-09-23T01:53:18.384Z,2.63
2022-09-23T01:58:27.585Z,2.67
2022-09-23T02:01:00.791Z,3.08
2022-09-23T02:04:08.930Z,2.95
2022-09-23T02:06:50.646Z,2.42
2022-09-23T02:09:24.832Z,2.75
2022-09-23T02:11:54.434Z,2.85
2022-09-23T02:14:42.731Z,3.08
2022-09-23T02:17:13.140Z,2.67
2022-09-23T02:19:51.092Z,2.80
2022-09-23T02:22:28.265Z,2.53
2022-09-23T02:24:57.082Z,2.92
2022-09-23T02:27:37.163Z,3.17
2022-09-23T02:30:28.318Z,2.70
2022-09-23T02:33:07.794Z,3.00
2022-09-23T02:35:49.440Z,2.95
2022-09-23T02:38:34.826Z,2.83
2022-09-23T02:41:26.293Z,3.05
2022-09-23T02:44:02.122Z,3.28
2022-09-23T02:46:32.184Z,3.42
2022-09-23T02:49:26.887Z,2.88
2022-09-23T02:51:54.525Z,3.25
2022-09-23T02:54:30.760Z,4.30
2022-09-23T02:57:01.114Z,3.42
2022-09-23T02:59:28.301Z,3.38
2022-09-23T03:02:23.663Z,2.75
2022-09-23T03:05:12.851Z,3.03
2022-09-23T03:07:48.518Z,3.30
2022-09-23T03:10:31.186Z,3.17
2022-09-23T03:13:01.996Z,2.95
2022-09-23T03:15:38.466Z,3.10
2022-09-23T03:18:12.828Z,3.83
2022-09-23T03:20:46.190Z,2.95
2022-09-23T03:23:15.243Z,3.17
2022-09-23T03:25:47.145Z,3.50
2022-09-23T03:28:17.398Z,3.70
2022-09-23T03:30:45.176Z,3.45
2022-09-23T03:33:15.433Z,3.00
2022-09-23T03:36:18.958Z,3.40
2022-09-23T03:38:51.035Z,3.67
2022-09-23T03:41:25.144Z,3.72
2022-09-23T03:43:53.209Z,3.03
2022-09-23T03:46:20.081Z,3.67
2022-09-23T03:48:47.006Z,3.65
2022-09-23T03:51:26.511Z,3.78
2022-09-23T03:53:53.354Z,3.25
2022-09-23T03:56:20.328Z,3.65
2022-09-23T03:58:47.158Z,3.08
2022-09-23T04:01:14.751Z,3.33
2022-09-23T04:03:41.949Z,3.10
2022-09-23T04:06:08.793Z,4.00
2022-09-23T04:08:35.512Z,3.05
2022-09-23T04:11:03.673Z,3.70
2022-09-23T04:13:31.759Z,3.20
2022-09-23T04:15:58.892Z,3.25
2022-09-23T04:18:25.964Z,3.50
2022-09-23T04:20:58.476Z,3.88
2022-09-23T04:23:28.999Z,3.20
2022-09-23T04:25:55.904Z,3.60
2022-09-23T04:28:23.197Z,3.90
2022-09-23T04:30:50.308Z,3.33
2022-09-23T04:33:17.327Z,3.45
2022-09-23T04:35:44.141Z,3.78
2022-09-23T04:38:12.747Z,3.50
2022-09-23T04:40:39.880Z,3.35
2022-09-23T04:43:10.538Z,3.22
2022-09-23T04:45:39.795Z,3.28
2022-09-23T04:48:07.273Z,3.40
2022-09-23T04:50:34.062Z,3.13
2022-09-23T04:53:02.355Z,3.60
2022-09-23T04:55:30.669Z,2.88
2022-09-23T04:57:57.810Z,3.00
2022-09-23T05:00:24.663Z,3.47
2022-09-23T05:02:51.827Z,3.03
2022-09-23T05:05:20.952Z,3.08
2022-09-23T05:07:48.491Z,3.22
2022-09-23T05:10:16.195Z,4.03
2022-09-23T05:12:43.185Z,3.63
2022-09-23T05:15:10.207Z,3.53
2022-09-23T05:17:37.392Z,3.85
2022-09-23T05:20:11.747Z,5.57
2022-09-23T05:22:38.605Z,3.42
2022-09-23T05:25:06.612Z,3.58
2022-09-23T05:27:33.383Z,2.80
2022-09-23T05:30:00.953Z,3.33
2022-09-23T05:32:27.908Z,3.13
2022-09-23T05:34:55.649Z,3.53
2022-09-23T05:37:23.173Z,3.70
2022-09-23T05:39:49.915Z,3.38
2022-09-23T05:42:20.473Z,3.22
2022-09-23T05:44:47.767Z,3.03
2022-09-23T05:47:15.437Z,3.50
2022-09-23T05:49:59.096Z,3.30
2022-09-23T05:52:27.507Z,3.65
2022-09-23T05:54:54.218Z,3.78
2022-09-23T05:57:21.397Z,3.78
2022-09-23T05:59:48.206Z,3.58
2022-09-23T06:02:15.273Z,3.78
2022-09-23T06:04:42.923Z,4.55
2022-09-23T06:07:10.686Z,3.47
2022-09-23T06:09:37.730Z,3.33
2022-09-23T06:12:06.250Z,3.30
2022-09-23T06:14:33.255Z,3.55
2022-09-23T06:17:01.100Z,3.20
2022-09-23T06:19:27.836Z,3.60
2022-09-23T06:21:54.622Z,3.33
2022-09-23T06:24:25.998Z,3.33
2022-09-23T06:26:55.732Z,3.67
2022-09-23T06:29:22.423Z,4.00
2022-09-23T06:31:49.755Z,3.67
2022-09-23T06:34:16.856Z,3.55
2022-09-23T06:36:45.832Z,3.25
2022-09-23T06:39:14.971Z,3.80
2022-09-23T06:41:42.119Z,3.85
2022-09-23T06:44:12.926Z,3.85
2022-09-23T06:46:39.805Z,4.07
2022-09-23T06:49:06.735Z,7.72
2022-09-23T06:51:33.790Z,6.93
2022-09-23T06:54:00.598Z,6.25
2022-09-23T06:56:27.417Z,3.88
2022-09-23T06:58:54.635Z,3.05
2022-09-23T07:01:22.201Z,3.35
2022-09-23T07:03:49.122Z,3.63
2022-09-23T07:06:17.108Z,4.03
2022-09-23T07:08:46.821Z,3.70
2022-09-23T07:11:15.301Z,3.95
2022-09-23T07:13:42.615Z,4.07
2022-09-23T07:16:10.831Z,3.55
2022-09-23T07:18:38.172Z,4.28
2022-09-23T07:21:13.602Z,3.78
2022-09-23T07:23:41.498Z,3.88
2022-09-23T07:26:09.625Z,3.78
2022-09-23T07:28:37.122Z,3.95
2022-09-23T07:31:10.995Z,3.40
2022-09-23T07:33:39.734Z,3.53
2022-09-23T07:36:10.016Z,3.40
2022-09-23T07:38:41.621Z,3.28
2022-09-23T07:41:16.786Z,2.30
2022-09-23T07:43:44.290Z,3.83
2022-09-23T07:46:17.406Z,3.53
2022-09-23T07:48:45.833Z,3.40
2022-09-23T07:51:18.072Z,3.92
2022-09-23T07:53:48.632Z,2.78
2022-09-23T07:56:15.822Z,2.70
2022-09-23T07:58:42.623Z,2.40
2022-09-23T08:01:11.204Z,3.85
2022-09-23T08:03:39.471Z,3.03
2022-09-23T08:06:13.713Z,3.50
2022-09-23T08:08:51.155Z,3.35
2022-09-23T08:11:21.865Z,3.42
2022-09-23T08:13:48.535Z,2.83
2022-09-23T08:16:17.362Z,2.70
2022-09-23T08:18:45.260Z,2.83
2022-09-23T08:21:12.828Z,3.67
2022-09-23T08:23:46.142Z,2.83
2022-09-23T08:26:20.664Z,5.65
2022-09-23T08:28:53.898Z,3.30
2022-09-23T08:31:49.567Z,3.08
2022-09-23T08:34:28.036Z,3.20
2022-09-23T08:36:59.827Z,2.92
2022-09-23T08:39:28.633Z,3.20
2022-09-23T08:42:19.942Z,2.88
2022-09-23T08:44:53.981Z,3.33
2022-09-23T08:47:32.406Z,2.83
2022-09-23T08:50:17.953Z,3.75
2022-09-23T08:52:52.622Z,3.28
2022-09-23T08:55:20.462Z,2.75
2022-09-23T08:58:25.945Z,4.18
2022-09-23T09:01:20.883Z,2.78
2022-09-23T09:03:56.795Z,3.30
2022-09-23T09:06:30.873Z,2.85
2022-09-23T09:09:03.125Z,2.45
2022-09-23T09:11:48.392Z,2.67
2022-09-23T09:14:23.767Z,2.38
2022-09-23T09:17:00.312Z,2.55
2022-09-23T09:19:47.240Z,1.95
2022-09-23T09:22:29.831Z,2.20
2022-09-23T09:25:34.372Z,3.00
2022-09-23T09:28:03.199Z,2.90
2022-09-23T09:30:32.106Z,2.80
2022-09-23T09:33:03.594Z,2.00
2022-09-23T09:35:41.985Z,2.38
2022-09-23T09:38:09.015Z,3.05
2022-09-23T09:40:39.387Z,2.65
2022-09-23T09:43:07.443Z,2.45
2022-09-23T09:46:02.551Z,2.72
2022-09-23T09:48:40.826Z,2.63
2022-09-23T09:51:22.598Z,2.42
2022-09-23T09:53:52.503Z,3.33
2022-09-23T09:56:33.478Z,3.22
2022-09-23T09:59:11.473Z,2.25
2022-09-23T10:01:38.392Z,2.47
2022-09-23T10:04:33.747Z,2.50
2022-09-23T10:07:08.279Z,3.00
2022-09-23T10:09:37.099Z,2.67
2022-09-23T10:12:18.359Z,2.78
2022-09-23T10:14:46.629Z,2.47
2022-09-23T10:17:29.061Z,2.67
2022-09-23T10:20:02.453Z,2.53
2022-09-23T10:22:36.290Z,4.28
2022-09-23T10:25:08.476Z,2.97
2022-09-23T10:27:36.866Z,2.75
2022-09-23T10:30:10.716Z,2.42
2022-09-23T10:32:44.081Z,2.50
2022-09-23T10:35:13.524Z,7.85
2022-09-23T10:37:50.214Z,4.50
2022-09-23T10:40:56.604Z,3.40
2022-09-23T10:44:06.861Z,3.00
2022-09-23T10:46:47.444Z,2.35
2022-09-23T10:49:34.798Z,3.17
2022-09-23T10:52:18.973Z,2.78
2022-09-23T10:54:57.671Z,2.95
2022-09-23T10:57:49.351Z,2.78
2022-09-23T11:00:53.706Z,2.15
2022-09-23T11:03:26.449Z,2.20
2022-09-23T11:05:56.212Z,1.85
2022-09-23T11:08:38.322Z,2.55
2022-09-23T11:11:15.156Z,2.72
2022-09-23T11:14:06.515Z,1.90
2022-09-23T11:16:58.180Z,1.58
2022-09-23T11:20:09.646Z,1.83
2022-09-23T11:23:02.018Z,2.13
2022-09-23T11:25:47.167Z,3.00
2022-09-23T11:28:39.995Z,2.10
2022-09-23T11:31:29.068Z,1.77
2022-09-23T11:33:55.799Z,2.13
2022-09-23T11:36:36.398Z,2.20
2022-09-23T11:39:13.463Z,2.40
2022-09-23T11:41:43.019Z,2.17
2022-09-23T11:44:41.108Z,1.60
2022-09-23T11:47:39.622Z,2.20
2022-09-23T11:50:27.974Z,2.00
2022-09-23T11:53:22.923Z,1.67
2022-09-23T11:56:00.382Z,1.90
2022-09-23T11:58:31.411Z,2.05
2022-09-23T12:01:08.603Z,1.80
2022-09-23T12:03:48.493Z,2.05
2022-09-23T12:06:24.622Z,2.33
2022-09-23T12:08:57.488Z,2.13
2022-09-23T12:11:46.537Z,2.10
2022-09-23T12:14:27.415Z,2.15
2022-09-23T12:17:22.205Z,1.70
2022-09-23T12:20:16.047Z,2.22
2022-09-23T12:23:00.825Z,2.55
2022-09-23T12:25:48.419Z,1.92
2022-09-23T12:28:19.293Z,2.53
2022-09-23T12:30:47.756Z,2.33
2022-09-23T12:33:24.700Z,1.95
2022-09-23T12:36:09.056Z,2.42
2022-09-23T12:38:37.488Z,2.20
2022-09-23T12:41:41.421Z,1.95
2022-09-23T12:44:12.133Z,2.00
2022-09-23T12:46:40.426Z,2.35
2022-09-23T12:49:27.043Z,2.05
2022-09-23T12:52:12.110Z,2.45
2022-09-23T12:54:40.484Z,2.33
2022-09-23T12:57:33.358Z,2.08
2022-09-23T13:00:13.287Z,2.08
2022-09-23T13:03:13.426Z,1.80
2022-09-23T13:06:06.039Z,2.10
2022-09-23T13:08:37.861Z,2.40
2022-09-23T13:11:14.198Z,2.63
2022-09-23T13:13:44.800Z,1.77
2022-09-23T13:16:13.586Z,2.47
2022-09-23T13:19:00.992Z,1.90
2022-09-23T13:21:43.057Z,1.65
2022-09-23T13:24:28.207Z,1.85
2022-09-23T13:27:21.990Z,1.98
2022-09-23T13:30:06.030Z,2.15
2022-09-23T13:35:12.646Z,1.90
2022-09-23T13:37:48.164Z,2.05
2022-09-23T13:40:21.358Z,2.03
2022-09-23T13:42:55.271Z,2.30
2022-09-23T13:45:23.563Z,1.88
2022-09-23T13:47:53.078Z,1.85
2022-09-23T13:50:23.407Z,2.40
2022-09-23T13:53:00.948Z,2.50
2022-09-23T13:55:33.805Z,3.03
2022-09-23T13:58:04.264Z,1.80
2022-09-23T14:00:35.607Z,2.95
2022-09-23T14:03:03.902Z,2.38
2022-09-23T14:05:35.514Z,2.35
2022-09-23T14:08:02.938Z,2.15
2022-09-23T14:10:31.109Z,2.35
2022-09-23T14:12:59.205Z,2.30
2022-09-23T14:15:26.564Z,2.95
2022-09-23T14:18:06.211Z,2.40
2022-09-23T14:20:34.220Z,2.20
2022-09-23T14:23:11.565Z,2.17
2022-09-23T14:25:39.943Z,2.58
2022-09-23T14:28:07.247Z,2.28
2022-09-23T14:30:35.312Z,3.15
2022-09-23T14:33:06.761Z,4.30
2022-09-23T14:35:42.552Z,3.28
2022-09-23T14:38:28.191Z,3.20
2022-09-23T14:41:19.585Z,2.60
2022-09-23T14:43:54.921Z,3.13
2022-09-23T14:46:23.894Z,3.10
2022-09-23T14:48:56.026Z,2.78
2022-09-23T14:51:31.231Z,3.10
2022-09-23T14:54:28.966Z,3.28
2022-09-23T14:56:55.850Z,2.85
2022-09-23T14:59:36.944Z,3.28
2022-09-23T15:02:42.977Z,2.95
2022-09-23T15:05:20.122Z,2.85
2022-09-23T15:07:57.152Z,2.72
2022-09-23T15:10:31.744Z,3.33
2022-09-23T15:13:07.222Z,3.50
2022-09-23T15:15:35.604Z,3.25
2022-09-23T15:18:08.041Z,3.33
2022-09-23T15:20:35.841Z,3.38
2022-09-23T15:23:02.580Z,3.03
2022-09-23T15:25:39.990Z,3.95
2022-09-23T15:28:09.958Z,2.42
2022-09-23T15:30:38.175Z,2.85
2022-09-23T15:33:06.418Z,3.10
2022-09-23T15:35:33.384Z,3.10
2022-09-23T15:38:02.092Z,3.25
2022-09-23T15:40:36.868Z,3.20
2022-09-23T15:43:20.724Z,3.00
2022-09-23T15:45:53.094Z,3.40
2022-09-23T15:48:23.876Z,3.85
2022-09-23T15:50:51.923Z,3.58
2022-09-23T15:53:28.326Z,3.33
2022-09-23T15:55:58.486Z,3.45
2022-09-23T15:58:26.000Z,3.63
2022-09-23T16:00:57.172Z,3.40
2022-09-23T16:03:28.230Z,3.78
2022-09-23T16:05:59.960Z,4.00
2022-09-23T16:08:28.920Z,4.22
2022-09-23T16:10:58.782Z,3.50
2022-09-23T16:13:26.730Z,3.85
2022-09-23T16:15:53.658Z,3.95
2022-09-23T16:18:20.466Z,3.88
2022-09-23T16:20:49.342Z,3.95
2022-09-23T16:23:34.999Z,4.45
2022-09-23T16:26:15.202Z,4.25
2022-09-23T16:28:43.175Z,4.05
2022-09-23T16:31:11.156Z,4.25
2022-09-23T16:33:38.511Z,4.03
2022-09-23T16:36:07.799Z,4.57
2022-09-23T16:38:34.588Z,3.80
2022-09-23T16:41:03.078Z,4.57
2022-09-23T16:43:31.584Z,4.35
2022-09-23T16:45:59.537Z,4.63
2022-09-23T16:48:26.629Z,4.70
2022-09-23T16:50:55.521Z,4.55
2022-09-23T16:53:23.444Z,4.65
2022-09-23T16:55:53.396Z,4.47
2022-09-23T16:58:20.174Z,4.18
2022-09-23T17:01:06.743Z,4.60
2022-09-23T17:03:42.861Z,5.10
2022-09-23T17:06:15.076Z,4.75
2022-09-23T17:08:42.950Z,4.80
2022-09-23T17:11:12.174Z,4.78
2022-09-23T17:13:41.850Z,4.22
2022-09-23T17:16:21.800Z,4.50
2022-09-23T17:18:48.610Z,5.60
2022-09-23T17:21:15.358Z,5.47
2022-09-23T17:23:50.722Z,5.13
2022-09-23T17:26:22.891Z,5.50
2022-09-23T17:28:54.457Z,5.22
2022-09-23T17:31:23.569Z,4.95
2022-09-23T17:33:51.271Z,5.88
2022-09-23T17:36:18.546Z,5.05
2022-09-23T17:38:47.135Z,5.57
2022-09-23T17:41:18.064Z,5.75
2022-09-23T17:43:46.611Z,5.82
2022-09-23T17:46:18.356Z,4.53
2022-09-23T17:48:45.682Z,4.40
2022-09-23T17:51:15.048Z,5.43
2022-09-23T17:53:44.955Z,4.85
2022-09-23T17:56:22.966Z,6.32
2022-09-23T17:58:51.382Z,5.63
2022-09-23T18:01:23.478Z,5.50
2022-09-23T18:04:05.399Z,5.18
2022-09-23T18:06:37.500Z,4.80
2022-09-23T18:09:07.081Z,5.05
2022-09-23T18:11:37.058Z,4.47
2022-09-23T18:14:21.998Z,5.13
2022-09-23T18:16:51.810Z,4.65
2022-09-23T18:19:21.431Z,5.28
2022-09-23T18:21:54.474Z,4.78
2022-09-23T18:24:31.986Z,4.63
2022-09-23T18:26:59.750Z,4.70
2022-09-23T18:29:27.193Z,4.97
2022-09-23T18:31:54.175Z,5.70
2022-09-23T18:34:21.293Z,4.55
2022-09-23T18:36:48.298Z,3.88
2022-09-23T18:39:15.076Z,4.07
2022-09-23T18:41:41.982Z,4.65
2022-09-23T18:44:09.363Z,4.43
2022-09-23T18:46:36.484Z,4.07
2022-09-23T18:49:22.085Z,4.45
2022-09-23T18:51:48.779Z,4.78
2022-09-23T18:54:16.007Z,4.18
2022-09-23T18:56:44.574Z,4.93
2022-09-23T18:59:17.569Z,4.88
2022-09-23T19:01:45.936Z,4.07
2022-09-23T19:04:14.151Z,4.38
2022-09-23T19:06:41.607Z,5.40
2022-09-23T19:09:09.339Z,4.40
2022-09-23T19:11:36.466Z,5.07
2022-09-23T19:14:06.865Z,4.80
2022-09-23T19:16:35.139Z,4.85
2022-09-23T19:19:03.609Z,5.05
2022-09-23T19:21:31.002Z,3.90
2022-09-23T19:24:03.805Z,4.40
2022-09-23T19:26:36.629Z,5.05
2022-09-23T19:29:04.618Z,3.72
2022-09-23T19:31:40.063Z,3.75
2022-09-23T19:34:11.646Z,4.35
2022-09-23T19:36:40.742Z,4.55
2022-09-23T19:39:31.458Z,4.15
2022-09-23T19:41:58.890Z,4.95
2022-09-23T19:44:26.483Z,4.28
2022-09-23T19:46:56.930Z,5.07
2022-09-23T19:49:25.169Z,5.05
2022-09-23T19:51:55.062Z,4.35
2022-09-23T19:54:22.024Z,5.35
2022-09-23T19:56:49.827Z,4.95
2022-09-23T19:59:19.117Z,5.00
2022-09-23T20:01:47.790Z,5.50
2022-09-23T20:04:15.603Z,5.55
2022-09-23T20:06:43.882Z,5.05
2022-09-23T20:09:10.738Z,3.75
2022-09-23T20:11:37.439Z,4.50
2022-09-23T20:14:06.126Z,4.03
2022-09-23T20:16:35.689Z,5.28
2022-09-23T20:19:04.910Z,4.80
2022-09-23T20:21:33.408Z,4.57
2022-09-23T20:24:00.780Z,5.50
2022-09-23T20:26:46.350Z,5.93
2022-09-23T20:29:13.179Z,4.35
2022-09-23T20:31:41.494Z,5.78
2022-09-23T20:34:10.719Z,5.80
2022-09-23T20:36:40.814Z,4.90
2022-09-23T20:39:09.653Z,4.88
2022-09-23T20:41:38.917Z,4.75
2022-09-23T20:44:08.064Z,4.82
2022-09-23T20:46:35.776Z,5.28
2022-09-23T20:49:03.750Z,4.53
2022-09-23T20:51:33.564Z,5.13
2022-09-23T20:54:00.651Z,5.35
2022-09-23T20:56:28.518Z,4.22
2022-09-23T20:58:59.917Z,5.30
2022-09-23T21:01:29.845Z,5.00
2022-09-23T21:03:56.805Z,5.32
2022-09-23T21:06:25.059Z,4.60
2022-09-23T21:08:53.644Z,5.03
2022-09-23T21:11:21.785Z,4.85
2022-09-23T21:13:51.081Z,5.22
2022-09-23T21:16:22.027Z,5.10
2022-09-23T21:18:50.325Z,5.07
2022-09-23T21:21:19.407Z,5.15
2022-09-23T21:23:47.553Z,4.68
2022-09-23T21:26:19.245Z,5.57
2022-09-23T21:28:57.582Z,4.43
2022-09-23T21:31:28.552Z,4.57
2022-09-23T21:34:00.549Z,3.65
2022-09-23T21:36:33.195Z,4.20
2022-09-23T21:39:03.014Z,4.60
2022-09-23T21:41:30.360Z,4.57
2022-09-23T21:43:57.658Z,4.65
2022-09-23T21:46:25.400Z,4.32
2022-09-23T21:48:54.883Z,4.22
2022-09-23T21:51:38.455Z,3.80
2022-09-23T21:54:07.215Z,4.28
2022-09-23T21:56:36.235Z,4.03
2022-09-23T21:59:03.857Z,4.43
2022-09-23T22:01:36.134Z,4.18
2022-09-23T22:04:12.584Z,3.97
2022-09-23T22:06:40.373Z,4.30
2022-09-23T22:09:11.303Z,4.55
2022-09-23T22:11:57.970Z,4.13
2022-09-23T22:14:25.946Z,3.80
2022-09-23T22:16:57.482Z,4.20
2022-09-23T22:19:26.833Z,4.93
2022-09-23T22:21:55.662Z,5.22
2022-09-23T22:24:22.449Z,5.38
2022-09-23T22:26:50.261Z,4.85
2022-09-23T22:29:36.708Z,4.93
2022-09-23T22:32:24.365Z,5.03
2022-09-23T22:34:52.716Z,5.20
2022-09-23T22:37:34.014Z,4.97
2022-09-23T22:40:13.989Z,6.05
2022-09-23T22:42:42.215Z,5.63
2022-09-23T22:45:10.637Z,5.15
2022-09-23T22:47:39.509Z,4.68
2022-09-23T22:50:08.383Z,5.13
2022-09-23T22:52:35.732Z,4.45
2022-09-23T22:55:03.672Z,5.35
2022-09-23T22:57:31.221Z,5.32
2022-09-23T22:59:58.097Z,4.90
2022-09-23T23:02:24.862Z,4.90
2022-09-23T23:04:51.682Z,4.47
2022-09-23T23:07:21.057Z,5.32
2022-09-23T23:09:52.076Z,5.55
2022-09-23T23:12:20.120Z,5.82
2022-09-23T23:14:49.572Z,4.68
2022-09-23T23:17:17.200Z,5.40
2022-09-23T23:19:44.033Z,4.93
2022-09-23T23:22:10.866Z,5.82
2022-09-23T23:24:37.635Z,5.15
2022-09-23T23:27:04.422Z,4.53
2022-09-23T23:29:31.256Z,5.28
2022-09-23T23:31:58.111Z,4.50
2022-09-23T23:34:25.196Z,4.68
2022-09-23T23:36:54.923Z,5.10
2022-09-23T23:39:23.900Z,5.47
2022-09-23T23:41:55.860Z,4.22
2022-09-23T23:44:24.474Z,4.68
2022-09-23T23:46:52.085Z,4.65
2022-09-23T23:49:18.890Z,4.05
2022-09-23T23:51:46.416Z,4.53
2022-09-23T23:54:13.310Z,3.85
2022-09-23T23:56:40.130Z,4.75
2022-09-23T23:59:07.068Z,4.57
